Warren, New York
Current Conditions -  °F | °C
As of 4:53 AM on Sunday 26 Oct 2014 (Local Time) from KRME Reporting Station
Broken Clouds Broken Clouds  
Wind Chill: 44°   Ceiling: 7000
Heat Index: 47°   Visibility: 10mi
Dew Point: 40°   Wind: 6mph
Humidity: 77%   Direction: 300°WNW
Pressure: 29.54"   Gusts: NA
Location:  42.8523°N, 74.9958°W
Report Text: KRME 260853Z AUTO 30005KT 10SM FEW041 BKN070 08/04 A2954 RMK AO2 SLP002 T00830044 50003
Loading
Personal Weather Stations






























Interactive Weather Map New forecast layout! Learn more

10-Day Weather Forecast

Advertisements
Track Severe Weather on mobile